Time;durP1;ratioP1;P1;durP2;ratioP2;P2;SDS_P1;SDS_P2;PMS_P1;PMS_P2;Temp;Humidity;BMP_temperature;BMP_pressure;BME280_temperature;BME280_humidity;BME280_pressure;Samples;Min_cycle;Max_cycle;Signal;HPM_P1;HPM_P2
2023/11/13 00:02:03;;;;;;;5.25;3.20;;;;;;;20.26;41.91;100834.63;5022066;28;20033;-74
2023/11/13 00:04:28;;;;;;;3.80;2.88;;;;;;;20.28;41.89;100835.25;5020796;28;20135;-74
2023/11/13 00:06:54;;;;;;;3.60;3.13;;;;;;;20.29;41.93;100836.94;5025605;28;20518;-74
2023/11/13 00:09:19;;;;;;;4.25;3.13;;;;;;;20.28;41.99;100839.72;5019515;28;20163;-74
2023/11/13 00:11:45;;;;;;;3.70;2.92;;;;;;;20.26;41.97;100833.81;5023432;28;20689;-74
2023/11/13 00:14:11;;;;;;;4.47;3.17;;;;;;;20.25;42.04;100834.81;5022858;28;20436;-74
2023/11/13 00:16:36;;;;;;;3.30;3.00;;;;;;;20.20;41.99;100832.72;5020408;28;20065;-74
2023/11/13 00:19:02;;;;;;;5.38;3.35;;;;;;;20.16;42.01;100847.31;5026611;28;20423;-74
2023/11/13 00:21:27;;;;;;;3.72;3.17;;;;;;;20.13;42.00;100845.03;5027757;28;20368;-74
2023/11/13 00:23:53;;;;;;;4.65;3.67;;;;;;;20.13;42.10;100847.69;5018313;28;20034;-74
2023/11/13 00:26:19;;;;;;;4.53;3.10;;;;;;;20.11;42.16;100839.94;5025228;28;20342;-74
2023/11/13 00:28:51;;;;;;;4.32;3.08;;;;;;;20.09;42.04;100831.34;5006951;28;20053;-74
2023/11/13 00:31:17;;;;;;;4.63;3.45;;;;;;;20.16;42.09;100832.28;5020569;28;20046;-74
2023/11/13 00:33:43;;;;;;;4.45;3.20;;;;;;;20.17;42.07;100830.44;5021650;28;20038;-74
2023/11/13 00:36:09;;;;;;;3.58;3.00;;;;;;;20.15;42.14;100824.53;5025398;28;20052;-74
2023/11/13 00:38:34;;;;;;;5.00;3.38;;;;;;;20.00;42.17;100806.00;5024049;28;20080;-74
2023/11/13 00:41:00;;;;;;;4.53;3.25;;;;;;;20.13;41.93;100845.84;5022440;28;20391;-74
2023/11/13 00:43:26;;;;;;;4.93;3.60;;;;;;;20.13;42.05;100839.75;5030024;28;20400;-74
2023/11/13 00:45:52;;;;;;;4.55;3.15;;;;;;;20.04;41.94;100844.28;5021057;28;20044;-74
2023/11/13 00:48:18;;;;;;;4.53;3.13;;;;;;;20.13;42.02;100855.63;5026608;28;20033;-74
2023/11/13 00:50:44;;;;;;;4.43;3.22;;;;;;;20.00;42.03;100832.44;5016195;28;20029;-74
2023/11/13 00:53:10;;;;;;;4.25;3.28;;;;;;;20.05;42.08;100831.88;5023520;28;20542;-74
2023/11/13 00:55:36;;;;;;;4.38;3.38;;;;;;;20.10;42.04;100838.25;5023450;28;20116;-74
2023/11/13 00:58:02;;;;;;;3.90;3.50;;;;;;;20.04;42.10;100828.44;5025180;28;20029;-74
2023/11/13 01:00:28;;;;;;;3.85;3.20;;;;;;;19.96;42.21;100822.41;5020866;28;20701;-74
2023/11/13 01:02:54;;;;;;;4.63;3.30;;;;;;;20.08;42.06;100844.75;5026185;28;20052;-74
2023/11/13 01:05:20;;;;;;;4.50;3.40;;;;;;;19.77;41.93;100792.88;5022921;28;20120;-74
2023/11/13 01:07:46;;;;;;;3.83;3.15;;;;;;;20.07;42.08;100829.88;5020629;28;20037;-74
2023/11/13 01:10:12;;;;;;;5.38;3.78;;;;;;;20.04;42.20;100819.69;5024969;28;20083;-74
2023/11/13 01:12:38;;;;;;;4.28;3.10;;;;;;;20.07;42.17;100825.41;5023458;28;20079;-74
2023/11/13 01:15:06;;;;;;;3.83;3.17;;;;;;;20.09;41.95;100818.13;5018988;28;20375;-74
2023/11/13 01:17:32;;;;;;;3.80;3.15;;;;;;;20.09;41.99;100819.94;5023315;28;20037;-74
2023/11/13 01:19:58;;;;;;;4.63;3.30;;;;;;;20.07;41.99;100820.13;5019493;28;20472;-74
2023/11/13 01:22:24;;;;;;;5.68;3.22;;;;;;;20.09;42.10;100814.66;5038615;28;20037;-74
2023/11/13 01:24:50;;;;;;;4.80;3.47;;;;;;;20.06;42.11;100805.28;5028738;28;20435;-74
2023/11/13 01:27:15;;;;;;;5.20;3.47;;;;;;;20.01;42.16;100801.53;5027765;28;20048;-74
2023/11/13 01:29:41;;;;;;;5.70;3.03;;;;;;;20.07;42.12;100806.91;5003347;28;20054;-74
2023/11/13 01:32:07;;;;;;;4.90;3.20;;;;;;;20.05;42.01;100797.53;5035259;28;20037;-74
2023/11/13 01:34:32;;;;;;;4.28;3.05;;;;;;;20.08;42.04;100800.63;5026113;28;20029;-74
2023/11/13 01:36:58;;;;;;;4.55;3.47;;;;;;;19.96;42.11;100780.94;5025184;28;20041;-74
2023/11/13 01:39:23;;;;;;;4.50;3.55;;;;;;;20.05;42.16;100786.94;5022125;28;20048;-74
2023/11/13 01:41:49;;;;;;;5.35;3.53;;;;;;;19.94;42.16;100764.44;5022087;28;20036;-74
2023/11/13 01:44:14;;;;;;;4.40;3.10;;;;;;;20.07;42.00;100784.94;5024438;28;20033;-74
2023/11/13 01:46:43;;;;;;;4.28;3.58;;;;;;;20.04;42.08;100772.91;5027014;28;20041;-74
2023/11/13 01:49:09;;;;;;;5.43;3.50;;;;;;;20.00;42.25;100770.81;5028312;28;20064;-74
2023/11/13 01:51:35;;;;;;;3.50;3.20;;;;;;;20.00;42.17;100763.72;5021849;28;20025;-74
2023/11/13 01:54:02;;;;;;;3.90;3.03;;;;;;;20.05;42.12;100768.44;5026354;28;20040;-74
2023/11/13 01:56:29;;;;;;;5.10;3.30;;;;;;;20.01;42.16;100754.78;5027196;28;20049;-74
2023/11/13 01:58:56;;;;;;;3.92;3.08;;;;;;;20.02;42.27;100753.78;5026228;28;20254;-74
2023/11/13 02:01:24;;;;;;;4.78;3.38;;;;;;;20.03;42.08;100765.16;5021079;28;20080;-74
2023/11/13 02:03:52;;;;;;;5.47;3.35;;;;;;;20.02;42.26;100774.09;5027422;28;20153;-74
2023/11/13 02:06:18;;;;;;;4.20;3.20;;;;;;;19.99;42.35;100783.22;5012310;28;20037;-74
2023/11/13 02:08:45;;;;;;;5.00;3.35;;;;;;;20.02;42.23;100789.97;5024673;28;20087;-74
2023/11/13 02:11:11;;;;;;;4.53;3.13;;;;;;;19.96;42.31;100790.69;5026198;28;20601;-74
2023/11/13 02:13:38;;;;;;;3.65;3.25;;;;;;;19.99;42.19;100796.44;5028963;28;20405;-74
2023/11/13 02:16:05;;;;;;;4.55;3.30;;;;;;;20.00;42.31;100790.16;5017521;28;20041;-74
2023/11/13 02:18:36;;;;;;;3.47;2.97;;;;;;;19.99;42.31;100791.16;5026961;28;20100;-74
2023/11/13 02:21:02;;;;;;;4.38;3.38;;;;;;;19.99;42.61;100791.16;5004082;28;20030;-74
2023/11/13 02:23:28;;;;;;;5.35;3.60;;;;;;;19.96;42.17;100780.13;5042990;28;20055;-74
2023/11/13 02:25:58;;;;;;;4.70;3.35;;;;;;;19.98;42.32;100794.78;5022346;28;20445;-74
2023/11/13 02:28:24;;;;;;;4.03;3.10;;;;;;;19.94;42.35;100788.25;5023929;28;20089;-74
2023/11/13 02:30:49;;;;;;;4.15;3.15;;;;;;;19.99;42.31;100798.25;5026059;28;20041;-74
2023/11/13 02:33:15;;;;;;;4.13;3.30;;;;;;;19.82;42.38;100769.34;5025805;28;20045;-74
2023/11/13 02:35:41;;;;;;;3.85;3.03;;;;;;;19.95;42.42;100768.72;5030278;28;20041;-74
2023/11/13 02:38:07;;;;;;;3.80;3.38;;;;;;;19.94;42.33;100764.44;5022854;28;20033;-74
2023/11/13 02:40:33;;;;;;;5.03;3.10;;;;;;;19.98;42.34;100762.25;5010208;28;20036;-74
2023/11/13 02:42:58;;;;;;;4.70;3.22;;;;;;;19.98;42.33;100775.47;5028511;28;20396;-74
2023/11/13 02:45:26;;;;;;;3.17;2.85;;;;;;;19.70;42.29;100725.06;5022504;28;20045;-74
2023/11/13 02:47:52;;;;;;;3.30;2.92;;;;;;;19.97;42.30;100768.56;5020704;28;20061;-74
2023/11/13 02:50:18;;;;;;;4.35;2.83;;;;;;;19.89;42.17;100756.22;5014522;28;20049;-74
2023/11/13 02:52:44;;;;;;;3.70;3.25;;;;;;;19.93;42.21;100754.88;5026943;28;20067;-74
2023/11/13 02:55:10;;;;;;;3.47;2.83;;;;;;;19.77;42.21;100720.72;5029632;28;20037;-74
2023/11/13 02:57:36;;;;;;;4.45;3.20;;;;;;;19.97;42.30;100745.59;5022809;28;20041;-74
2023/11/13 03:00:06;;;;;;;3.85;2.80;;;;;;;19.90;42.45;100736.72;5031148;28;20040;-74
2023/11/13 03:02:32;;;;;;;;;;;;;;;19.97;42.24;100750.03;5022857;28;20079;-74
2023/11/13 03:04:59;;;;;;;3.65;3.28;;;;;;;19.92;42.36;100743.47;5023850;28;20016;-74
2023/11/13 03:07:25;;;;;;;4.50;3.17;;;;;;;19.93;42.29;100741.66;5029989;28;20591;-74
2023/11/13 03:09:53;;;;;;;3.53;2.95;;;;;;;19.86;42.38;100738.91;5006273;28;20710;-74
2023/11/13 03:12:21;;;;;;;3.58;3.00;;;;;;;19.94;42.34;100759.16;5027490;28;20139;-74
2023/11/13 03:14:47;;;;;;;3.20;2.90;;;;;;;19.84;42.28;100748.03;5018804;28;20048;-74
2023/11/13 03:17:13;;;;;;;3.85;3.30;;;;;;;19.91;42.37;100751.56;5025211;28;20045;-74
2023/11/13 03:19:39;;;;;;;7.03;3.85;;;;;;;19.93;42.31;100768.09;5025119;28;20602;-74
2023/11/13 03:22:05;;;;;;;4.50;3.03;;;;;;;19.90;42.38;100765.78;5025921;28;20152;-74
2023/11/13 03:24:30;;;;;;;3.20;2.80;;;;;;;19.85;42.28;100753.13;5024817;28;20032;-74
2023/11/13 03:26:56;;;;;;;3.55;3.15;;;;;;;19.85;42.25;100749.66;5018363;28;20513;-74
2023/11/13 03:29:21;;;;;;;3.92;3.15;;;;;;;19.88;42.27;100752.75;5026715;28;20618;-74
2023/11/13 03:31:47;;;;;;;2.90;2.53;;;;;;;19.87;42.13;100753.78;5017761;28;20037;-75
2023/11/13 03:34:13;;;;;;;4.38;3.10;;;;;;;19.89;42.32;100753.59;5003831;28;20037;-75
2023/11/13 03:36:38;;;;;;;3.63;3.00;;;;;;;19.87;42.33;100759.06;5030760;28;20037;-74
2023/11/13 03:39:04;;;;;;;3.25;2.95;;;;;;;19.88;42.32;100758.06;5030725;28;20041;-74
2023/11/13 03:41:32;;;;;;;4.10;3.08;;;;;;;19.87;42.33;100760.88;5027734;28;20048;-74
2023/11/13 03:44:00;;;;;;;4.05;3.13;;;;;;;19.84;42.19;100737.47;5013781;28;20103;-74
2023/11/13 03:46:26;;;;;;;3.70;2.80;;;;;;;19.85;42.35;100739.91;5027136;28;20714;-74
2023/11/13 03:48:52;;;;;;;3.30;2.80;;;;;;;19.78;42.37;100736.38;5024906;28;20373;-74
2023/11/13 03:51:17;;;;;;;3.85;3.05;;;;;;;19.85;42.28;100737.28;5025205;28;20057;-74
2023/11/13 03:53:43;;;;;;;3.63;2.88;;;;;;;19.86;42.37;100732.81;5026376;28;20063;-74
2023/11/13 03:56:08;;;;;;;3.75;2.97;;;;;;;19.76;42.30;100714.59;5017839;28;20487;-74
2023/11/13 03:58:34;;;;;;;3.92;2.83;;;;;;;19.84;42.37;100729.53;5022551;28;20063;-75
2023/11/13 04:01:00;;;;;;;3.85;2.97;;;;;;;19.86;42.29;100725.69;5029998;28;20042;-74
2023/11/13 04:03:25;;;;;;;3.03;2.53;;;;;;;19.84;42.30;100726.88;5021538;28;20053;-74
2023/11/13 04:05:51;;;;;;;3.35;3.05;;;;;;;19.75;42.42;100706.81;5023093;28;20927;-74
2023/11/13 04:08:17;;;;;;;4.22;3.10;;;;;;;19.83;42.36;100717.31;5009836;28;20040;-74
2023/11/13 04:10:42;;;;;;;3.47;2.85;;;;;;;19.75;42.40;100706.81;5021563;28;20061;-75
2023/11/13 04:13:08;;;;;;;3.35;3.03;;;;;;;19.72;42.44;100705.38;5016847;28;20038;-74
2023/11/13 04:15:34;;;;;;;4.32;3.30;;;;;;;19.76;42.48;100706.69;5024828;28;20079;-75
2023/11/13 04:18:00;;;;;;;3.80;2.90;;;;;;;19.75;42.34;100705.03;5013352;28;20199;-74
2023/11/13 04:20:25;;;;;;;3.25;2.70;;;;;;;19.79;42.44;100710.78;5023875;28;20044;-74
2023/11/13 04:22:51;;;;;;;3.28;2.70;;;;;;;19.72;42.45;100697.44;5024921;28;20049;-74
2023/11/13 04:25:16;;;;;;;3.78;3.17;;;;;;;19.79;42.45;100711.59;5024402;28;20044;-74
2023/11/13 04:27:42;;;;;;;3.28;2.85;;;;;;;19.79;42.38;100713.41;5017659;28;20046;-74
2023/11/13 04:30:08;;;;;;;2.95;2.63;;;;;;;19.78;42.45;100711.78;5019572;28;20513;-74
2023/11/13 04:32:33;;;;;;;4.05;2.70;;;;;;;19.77;42.37;100713.59;5019324;28;20056;-74
2023/11/13 04:34:59;;;;;;;2.97;2.55;;;;;;;19.69;42.33;100699.63;5017635;28;20568;-74
2023/11/13 04:37:24;;;;;;;3.72;2.70;;;;;;;19.67;42.30;100702.47;5024297;28;20499;-74
2023/11/13 04:39:50;;;;;;;3.88;2.90;;;;;;;19.76;42.32;100722.53;5009235;28;20041;-74
2023/11/13 04:42:15;;;;;;;3.42;2.90;;;;;;;19.80;42.34;100717.69;5020673;28;20038;-74
2023/11/13 04:44:41;;;;;;;2.88;2.58;;;;;;;19.79;42.24;100697.56;5027843;28;20364;-75
2023/11/13 04:47:08;;;;;;;3.67;3.08;;;;;;;19.90;42.23;100707.66;5004989;28;20044;-74
2023/11/13 04:49:35;;;;;;;3.08;2.72;;;;;;;19.90;42.31;100699.72;5033813;28;20045;-74
2023/11/13 04:52:01;;;;;;;2.83;2.47;;;;;;;19.86;41.94;100690.53;5027214;28;20060;-74
2023/11/13 04:54:27;;;;;;;2.67;2.30;;;;;;;19.92;42.21;100693.25;5020908;28;20103;-74
2023/11/13 04:56:54;;;;;;;2.85;2.53;;;;;;;19.77;42.25;100668.69;5025756;28;20049;-74
2023/11/13 04:59:20;;;;;;;3.00;2.50;;;;;;;19.90;42.32;100684.69;5028958;28;20083;-74
2023/11/13 05:01:46;;;;;;;3.78;2.72;;;;;;;19.85;42.28;100671.22;5031294;28;20037;-74
2023/11/13 05:04:12;;;;;;;2.92;2.40;;;;;;;19.81;42.03;100667.31;5025558;28;20033;-74
2023/11/13 05:06:38;;;;;;;3.10;2.58;;;;;;;19.84;42.26;100666.94;5021166;28;20499;-74
2023/11/13 05:09:04;;;;;;;4.10;2.78;;;;;;;19.87;42.26;100668.38;5026630;28;20033;-74
2023/11/13 05:11:30;;;;;;;2.97;2.63;;;;;;;19.79;42.45;100642.06;5017202;28;20038;-74
2023/11/13 05:13:56;;;;;;;2.97;2.63;;;;;;;19.83;42.33;100648.63;5030027;28;20025;-74
2023/11/13 05:16:27;;;;;;;3.75;2.72;;;;;;;19.81;42.30;100640.88;5024477;28;20044;-74
2023/11/13 05:18:53;;;;;;;4.25;2.97;;;;;;;19.65;42.27;100621.75;5029893;28;20052;-74
2023/11/13 05:21:19;;;;;;;3.00;2.70;;;;;;;19.81;42.31;100630.31;5028409;28;20037;-74
2023/11/13 05:23:47;;;;;;;3.03;2.65;;;;;;;19.75;42.31;100630.22;5027745;28;20069;-74
2023/11/13 05:26:13;;;;;;;3.72;2.63;;;;;;;19.75;42.43;100627.56;5027723;28;20550;-74
2023/11/13 05:28:38;;;;;;;3.70;2.83;;;;;;;19.73;42.29;100611.09;5023358;28;20071;-74
2023/11/13 05:31:04;;;;;;;2.92;2.63;;;;;;;19.70;42.25;100598.25;5027149;28;20057;-74
2023/11/13 05:33:29;;;;;;;3.80;2.80;;;;;;;19.68;42.30;100587.03;5033838;28;20163;-74
2023/11/13 05:35:55;;;;;;;2.90;2.60;;;;;;;19.71;42.20;100594.59;5023269;28;20068;-74
2023/11/13 05:38:21;;;;;;;3.25;2.50;;;;;;;19.78;42.22;100604.25;5026140;28;20703;-74
2023/11/13 05:40:47;;;;;;;3.50;2.80;;;;;;;19.78;42.32;100601.63;5020954;28;20068;-74
2023/11/13 05:43:13;;;;;;;2.92;2.63;;;;;;;19.77;42.30;100599.97;5029751;28;20133;-74
2023/11/13 05:45:38;;;;;;;3.60;2.67;;;;;;;19.77;42.31;100599.97;5027266;28;20033;-74
2023/11/13 05:48:05;;;;;;;3.90;2.70;;;;;;;19.75;42.47;100587.94;5020255;28;20433;-74
2023/11/13 05:50:31;;;;;;;3.20;2.67;;;;;;;19.73;42.21;100577.56;5019529;28;20045;-74
2023/11/13 05:52:57;;;;;;;3.08;2.72;;;;;;;19.71;42.35;100561.06;5020088;28;20041;-74
2023/11/13 05:55:22;;;;;;;2.90;2.60;;;;;;;19.76;42.12;100560.53;5022269;28;20030;-74
2023/11/13 05:57:48;;;;;;;2.78;2.50;;;;;;;19.82;42.16;100562.44;5031085;28;20036;-74
2023/11/13 06:00:16;;;;;;;3.05;2.72;;;;;;;19.90;42.24;100573.69;5028552;28;20074;-74
2023/11/13 06:02:42;;;;;;;2.75;2.50;;;;;;;19.88;42.18;100575.72;5021269;28;20033;-75
2023/11/13 06:05:08;;;;;;;2.85;2.45;;;;;;;19.90;42.22;100573.69;5029219;28;20048;-74
2023/11/13 06:07:35;;;;;;;4.75;3.25;;;;;;;19.89;42.07;100572.06;5021694;28;20521;-74
2023/11/13 06:10:01;;;;;;;3.67;2.75;;;;;;;19.89;42.10;100576.53;5028578;28;20028;-74
2023/11/13 06:12:26;;;;;;;3.17;2.83;;;;;;;19.90;42.30;100572.88;5026637;28;20510;-74
2023/11/13 06:14:52;;;;;;;3.47;2.50;;;;;;;19.83;42.27;100578.09;5025744;28;20088;-74
2023/11/13 06:17:23;;;;;;;2.83;2.53;;;;;;;19.79;42.38;100571.56;5024819;28;20040;-74
2023/11/13 06:19:51;;;;;;;3.03;2.60;;;;;;;19.86;42.35;100590.13;5024395;28;20045;-75
2023/11/13 06:22:17;;;;;;;3.45;2.60;;;;;;;19.80;42.43;100575.84;5029767;28;20045;-74
2023/11/13 06:24:43;;;;;;;3.78;2.90;;;;;;;19.84;42.45;100576.28;5037914;28;20059;-74
2023/11/13 06:27:09;;;;;;;3.28;2.67;;;;;;;19.84;42.34;100565.72;5021242;28;20755;-74
2023/11/13 06:29:35;;;;;;;4.22;3.25;;;;;;;19.83;42.61;100572.81;5019373;28;20502;-74
2023/11/13 06:32:05;;;;;;;3.58;2.70;;;;;;;19.77;42.35;100570.09;5027215;28;20038;-74
2023/11/13 06:34:30;;;;;;;3.10;2.70;;;;;;;19.76;42.37;100569.28;5019819;28;20549;-74
2023/11/13 06:36:56;;;;;;;3.65;3.00;;;;;;;19.77;42.40;100563.00;5022816;28;20029;-74
2023/11/13 06:39:22;;;;;;;4.95;2.75;;;;;;;19.57;42.36;100541.63;5025214;28;20067;-74
2023/11/13 06:41:48;;;;;;;5.38;3.08;;;;;;;19.72;42.38;100572.47;5022158;28;20084;-75
2023/11/13 06:44:14;;;;;;;3.90;2.97;;;;;;;19.72;42.44;100565.34;5029909;28;20049;-74
2023/11/13 06:46:40;;;;;;;3.58;2.90;;;;;;;19.73;42.34;100571.44;5024729;28;20041;-75
2023/11/13 06:49:06;;;;;;;3.67;2.75;;;;;;;19.76;42.43;100569.28;5028739;28;20037;-75
2023/11/13 06:51:32;;;;;;;5.90;3.20;;;;;;;19.76;42.40;100571.13;5019954;28;20061;-74
2023/11/13 06:53:57;;;;;;;3.25;2.95;;;;;;;19.68;42.38;100544.78;5019024;28;20033;-74
2023/11/13 06:56:24;;;;;;;4.05;3.10;;;;;;;19.71;42.38;100550.50;5027636;28;20044;-74
2023/11/13 06:58:49;;;;;;;4.68;3.15;;;;;;;19.76;42.38;100550.78;5031242;28;20387;-74
2023/11/13 07:01:21;;;;;;;3.53;2.70;;;;;;;19.78;42.35;100558.53;5027139;28;20041;-74
2023/11/13 07:03:47;;;;;;;3.35;2.80;;;;;;;19.71;42.38;100550.50;5028678;28;20490;-74
2023/11/13 07:06:13;;;;;;;3.35;2.55;;;;;;;19.75;42.40;100532.47;5016607;28;20045;-74
2023/11/13 07:08:38;;;;;;;3.97;3.17;;;;;;;19.67;42.41;100511.44;5020962;28;20041;-74
2023/11/13 07:11:04;;;;;;;3.63;3.00;;;;;;;19.69;42.40;100518.19;5022781;28;20111;-75
2023/11/13 07:13:32;;;;;;;3.53;2.80;;;;;;;19.75;42.25;100519.25;5034897;28;20453;-74
2023/11/13 07:15:58;;;;;;;4.28;2.95;;;;;;;19.77;42.26;100502.22;5032008;28;20481;-75
2023/11/13 07:18:23;;;;;;;4.15;2.70;;;;;;;19.94;42.14;100502.00;5033586;28;20044;-75
2023/11/13 07:20:50;;;;;;;3.50;2.97;;;;;;;20.26;41.77;100490.88;5027239;28;20038;-75
2023/11/13 07:23:18;;;;;;;3.78;2.90;;;;;;;20.86;40.41;100480.78;5018558;28;20116;-74
2023/11/13 07:25:45;;;;;;;4.40;3.20;;;;;;;21.25;40.04;100474.91;5013147;28;20029;-75
2023/11/13 07:28:11;;;;;;;3.85;3.00;;;;;;;21.30;39.87;100480.41;5025954;28;20422;-74
2023/11/13 07:30:37;;;;;;;4.07;3.28;;;;;;;21.10;40.11;100467.88;5001496;28;20044;-74
2023/11/13 07:33:03;;;;;;;3.60;2.90;;;;;;;21.16;40.22;100470.75;5022223;28;20037;-74
2023/11/13 07:35:29;;;;;;;3.67;2.95;;;;;;;21.07;40.35;100462.16;5024522;28;20091;-74
2023/11/13 07:37:55;;;;;;;3.65;2.83;;;;;;;20.94;40.89;100467.38;5016864;28;20045;-74
2023/11/13 07:40:20;;;;;;;3.47;3.05;;;;;;;20.73;41.01;100447.13;5020608;28;20041;-74
2023/11/13 07:42:47;;;;;;;4.20;2.85;;;;;;;20.68;41.42;100450.34;5026857;28;20500;-74
2023/11/13 07:45:13;;;;;;;3.53;2.88;;;;;;;20.58;41.52;100444.59;5025966;28;20049;-74
2023/11/13 07:47:39;;;;;;;3.28;2.95;;;;;;;20.52;41.60;100438.25;5025996;28;20124;-74
2023/11/13 07:50:11;;;;;;;3.75;2.90;;;;;;;20.47;41.70;100427.44;5027864;28;20040;-74
2023/11/13 07:52:42;;;;;;;4.03;3.13;;;;;;;20.47;41.65;100421.34;5020960;28;20087;-75
2023/11/13 07:55:09;;;;;;;3.42;2.60;;;;;;;20.42;41.69;100416.59;5026797;28;20041;-74
2023/11/13 07:57:37;;;;;;;2.92;2.65;;;;;;;20.37;41.78;100403.13;5016608;28;20046;-75
2023/11/13 08:00:04;;;;;;;4.32;3.00;;;;;;;20.17;41.94;100381.00;5030544;28;20041;-75
2023/11/13 08:02:40;;;;;;;4.53;3.00;;;;;;;20.33;41.92;100409.81;5018431;28;20037;-75
2023/11/13 08:05:11;;;;;;;5.13;3.38;;;;;;;20.18;41.92;100383.47;4992323;28;20065;-75
2023/11/13 08:07:42;;;;;;;4.05;2.75;;;;;;;20.43;41.83;100401.53;5014126;28;20037;-75
2023/11/13 08:10:12;;;;;;;4.20;3.03;;;;;;;20.45;41.82;100402.97;5023627;28;20527;-75
2023/11/13 08:12:42;;;;;;;3.35;2.95;;;;;;;20.38;41.59;100380.13;5020804;28;20487;-75
2023/11/13 08:15:14;;;;;;;4.10;3.10;;;;;;;20.36;41.78;100372.41;5024329;28;20040;-75
2023/11/13 08:17:42;;;;;;;4.13;2.97;;;;;;;20.38;41.85;100374.84;5020869;28;20128;-74
2023/11/13 08:20:08;;;;;;;3.92;2.75;;;;;;;20.31;41.88;100382.75;5025409;28;20035;-75
2023/11/13 08:22:35;;;;;;;3.22;2.65;;;;;;;20.37;41.77;100392.53;5025990;28;20029;-74
2023/11/13 08:25:04;;;;;;;4.80;2.70;;;;;;;20.34;41.78;100382.34;5026158;28;20046;-74
2023/11/13 08:27:30;;;;;;;3.53;2.97;;;;;;;20.37;41.72;100367.91;5022006;28;20487;-74
2023/11/13 08:29:57;;;;;;;3.83;2.80;;;;;;;20.49;41.70;100377.00;5016987;28;20044;-74
2023/11/13 08:32:22;;;;;;;3.88;2.83;;;;;;;20.62;41.47;100373.56;5029479;28;20529;-75
2023/11/13 08:34:48;;;;;;;3.90;2.88;;;;;;;20.59;41.27;100353.63;5026766;28;20055;-75
2023/11/13 08:37:14;;;;;;;4.25;3.22;;;;;;;20.64;41.33;100371.53;5029618;28;20041;-75
2023/11/13 08:39:40;;;;;;;3.22;2.70;;;;;;;20.57;41.26;100365.41;5021911;28;20511;-75
2023/11/13 08:42:07;;;;;;;4.53;2.80;;;;;;;20.55;41.47;100372.72;5022848;28;20037;-75
2023/11/13 08:44:33;;;;;;;3.25;2.67;;;;;;;20.54;41.36;100356.06;5026819;28;20032;-75
2023/11/13 08:46:58;;;;;;;3.55;2.70;;;;;;;20.50;41.43;100360.91;5024599;28;20167;-75
2023/11/13 08:49:24;;;;;;;3.08;2.75;;;;;;;20.48;41.66;100352.38;5028134;28;20096;-75
2023/11/13 08:51:49;;;;;;;3.08;2.63;;;;;;;20.41;41.59;100338.28;5027379;28;20057;-77
2023/11/13 08:54:16;;;;;;;4.25;2.30;;;;;;;20.42;41.62;100347.84;5028212;28;20052;-76
2023/11/13 08:56:49;;;;;;;3.53;2.72;;;;;;;20.41;41.68;100345.38;5021503;28;20059;-75
2023/11/13 08:59:15;;;;;;;3.28;2.67;;;;;;;20.22;41.74;100315.97;5027695;28;20045;-76
2023/11/13 09:01:40;;;;;;;3.30;2.67;;;;;;;20.39;41.72;100352.69;5023991;28;20040;-75
2023/11/13 09:04:06;;;;;;;3.90;3.00;;;;;;;20.37;41.89;100342.28;5025159;28;20038;-75
2023/11/13 09:06:35;;;;;;;4.03;3.00;;;;;;;20.42;41.66;100341.72;5044936;28;20038;-75
2023/11/13 09:09:01;;;;;;;3.17;2.80;;;;;;;20.50;41.50;100325.72;5023781;28;20382;-75
2023/11/13 09:11:28;;;;;;;3.58;2.80;;;;;;;20.68;41.03;100311.97;5022913;28;21535;-75
2023/11/13 09:13:55;;;;;;;4.35;2.72;;;;;;;21.05;40.23;100305.38;5023376;28;20042;-75
2023/11/13 09:16:21;;;;;;;3.50;2.85;;;;;;;21.02;40.47;100296.00;5028497;28;20488;-75
2023/11/13 09:18:48;;;;;;;4.30;2.58;;;;;;;20.98;40.63;100310.63;5025665;28;20112;-75
2023/11/13 09:21:17;;;;;;;3.47;2.53;;;;;;;20.74;40.65;100290.00;5023105;28;20126;-75
2023/11/13 09:23:45;;;;;;;3.40;2.80;;;;;;;20.85;41.11;100310.59;5025311;28;20125;-75
2023/11/13 09:26:11;;;;;;;3.55;2.70;;;;;;;20.79;41.23;100303.44;5020118;28;20966;-76
2023/11/13 09:28:37;;;;;;;2.78;2.40;;;;;;;20.74;40.97;100311.97;5031428;28;20826;-75
2023/11/13 09:31:03;;;;;;;3.95;2.85;;;;;;;20.63;41.11;100315.19;5024385;28;20040;-73
2023/11/13 09:33:29;;;;;;;3.78;2.90;;;;;;;20.66;41.38;100306.06;5023093;28;20459;-73
2023/11/13 09:35:55;;;;;;;3.90;2.90;;;;;;;20.64;41.44;100300.13;5004815;28;20086;-73
2023/11/13 09:38:21;;;;;;;4.97;2.70;;;;;;;20.64;41.46;100297.47;5029022;28;20036;-74
2023/11/13 09:40:47;;;;;;;3.50;2.42;;;;;;;20.53;41.52;100285.66;5023470;28;20106;-73
2023/11/13 09:43:18;;;;;;;3.25;2.63;;;;;;;20.56;41.60;100274.66;5027135;28;20629;-74
2023/11/13 09:45:46;;;;;;;3.67;2.78;;;;;;;20.57;41.37;100273.66;5023659;28;20128;-73
2023/11/13 09:48:49;;;;;;;4.57;2.75;;;;;;;20.38;41.81;100243.44;5027134;28;20080;-74
2023/11/13 09:51:08;;;;;;;3.42;2.70;;;;;;;20.52;41.69;100260.22;5026053;28;20052;-73
2023/11/13 09:53:35;;;;;;;3.08;2.67;;;;;;;20.50;41.64;100256.94;5021987;28;20041;-74
2023/11/13 09:56:01;;;;;;;3.20;2.50;;;;;;;20.47;41.64;100241.47;5026638;28;20717;-73
2023/11/13 09:58:26;;;;;;;4.00;2.70;;;;;;;20.47;41.83;100244.13;5024966;28;20040;-73
2023/11/13 10:00:52;;;;;;;3.58;2.63;;;;;;;20.24;41.72;100199.44;5016909;28;20056;-73
2023/11/13 10:03:17;;;;;;;3.80;2.80;;;;;;;20.44;41.87;100234.72;5017315;28;20061;-73
2023/11/13 10:05:44;;;;;;;4.50;2.90;;;;;;;20.45;41.87;100227.63;5030778;28;20090;-73
2023/11/13 10:08:11;;;;;;;3.53;2.97;;;;;;;20.52;41.56;100225.81;5019332;28;20522;-73
2023/11/13 10:10:39;;;;;;;3.20;2.47;;;;;;;20.60;41.60;100235.41;5022046;28;20507;-73
2023/11/13 10:13:09;;;;;;;3.40;2.53;;;;;;;20.52;41.32;100194.91;5025578;28;20033;-73
2023/11/13 10:15:36;;;;;;;2.83;2.40;;;;;;;20.65;41.33;100217.13;5023644;28;20033;-74
2023/11/13 10:18:10;;;;;;;3.50;2.65;;;;;;;20.64;41.31;100192.47;5022462;28;20040;-74
2023/11/13 10:20:43;;;;;;;3.15;2.42;;;;;;;20.62;41.35;100181.28;5027132;28;20048;-73
2023/11/13 10:23:09;;;;;;;3.90;2.60;;;;;;;20.50;41.35;100157.25;5041142;28;20474;-74
2023/11/13 10:25:52;;;;;;;3.70;2.67;;;;;;;20.58;41.68;100172.13;5023326;28;20025;-74
2023/11/13 10:28:21;;;;;;;3.60;2.60;;;;;;;20.55;41.63;100159.28;5022573;28;20045;-73
2023/11/13 10:31:00;;;;;;;3.42;2.47;;;;;;;20.44;41.77;100144.81;5017059;28;20049;-73
2023/11/13 10:33:27;;;;;;;4.40;3.13;;;;;;;20.49;41.81;100150.34;5026764;28;20361;-73
2023/11/13 10:35:54;;;;;;;3.70;2.53;;;;;;;20.43;41.70;100124.69;5024273;28;20707;-73
2023/11/13 10:38:21;;;;;;;2.88;2.50;;;;;;;20.47;41.79;100114.53;5024811;28;20136;-73
2023/11/13 10:41:00;;;;;;;3.08;2.63;;;;;;;20.45;41.76;100105.97;5021954;28;20068;-73
2023/11/13 10:43:39;;;;;;;3.38;2.53;;;;;;;20.46;41.83;100100.47;5023826;28;20037;-74
2023/11/13 10:46:09;;;;;;;3.42;2.60;;;;;;;20.46;41.74;100095.19;5019783;28;20070;-73
2023/11/13 10:48:47;;;;;;;3.80;2.45;;;;;;;20.57;41.42;100082.38;5013834;28;20037;-74
2023/11/13 10:51:17;;;;;;;4.22;2.90;;;;;;;20.62;41.48;100066.72;5024150;28;20082;-73
2023/11/13 10:53:43;;;;;;;;;;;;;;;20.78;41.18;100064.47;5025755;28;20048;-73
2023/11/13 10:56:13;;;;;;;3.10;2.40;;;;;;;20.80;41.24;100053.69;5033553;28;19917;-73
2023/11/13 10:58:40;;;;;;;4.10;2.50;;;;;;;20.73;41.21;100043.13;5031452;28;20078;-73
2023/11/13 11:01:16;;;;;;;2.78;2.50;;;;;;;20.64;41.40;100025.00;5025968;28;20125;-73
2023/11/13 11:03:52;;;;;;;3.47;2.47;;;;;;;20.66;41.58;100034.38;5090165;27;20716;-75
2023/11/13 11:06:22;;;;;;;2.90;2.50;;;;;;;20.62;41.43;100001.41;5079222;28;20544;-74
2023/11/13 11:08:49;;;;;;;;;;;;;;;20.67;41.47;100003.44;5081042;28;20040;-74
2023/11/13 11:11:15;;;;;;;2.95;2.47;;;;;;;20.65;41.43;99997.56;5080563;28;20384;-74
2023/11/13 11:13:49;;;;;;;2.80;2.38;;;;;;;20.62;41.63;99974.13;5090110;28;20490;-74
2023/11/13 11:16:51;;;;;;;3.17;2.53;;;;;;;20.61;41.69;99961.94;5088814;28;20032;-74
2023/11/13 11:19:56;;;;;;;2.95;2.30;;;;;;;20.60;41.65;99952.38;5082274;28;20039;-74
2023/11/13 11:22:42;;;;;;;4.03;2.60;;;;;;;20.57;41.80;99947.50;5009566;28;20037;-74
2023/11/13 11:25:47;;;;;;;3.53;2.60;;;;;;;20.55;41.80;99939.75;5075853;28;20494;-75
2023/11/13 11:28:44;;;;;;;2.97;2.33;;;;;;;20.54;41.76;99937.31;5080258;28;20027;-74